createdAt,value
2022-11-16T00:01:34.566Z,3.60
2022-11-16T00:04:03.526Z,3.23
2022-11-16T00:06:30.420Z,3.07
2022-11-16T00:09:18.713Z,3.63
2022-11-16T00:11:45.662Z,4.80
2022-11-16T00:14:12.600Z,4.93
2022-11-16T00:16:39.583Z,2.80
2022-11-16T00:19:07.470Z,4.67
2022-11-16T00:21:35.021Z,4.50
2022-11-16T00:24:02.924Z,3.77
2022-11-16T00:26:30.438Z,4.13
2022-11-16T00:28:57.437Z,4.87
2022-11-16T00:31:24.919Z,4.60
2022-11-16T00:33:52.213Z,4.20
2022-11-16T00:36:19.213Z,4.53
2022-11-16T00:38:46.341Z,4.80
2022-11-16T00:41:13.550Z,4.77
2022-11-16T00:43:40.329Z,3.20
2022-11-16T00:46:07.317Z,4.30
2022-11-16T00:48:34.335Z,3.20
2022-11-16T00:51:01.397Z,3.00
2022-11-16T00:53:28.480Z,3.17
2022-11-16T00:55:55.255Z,3.37
2022-11-16T00:58:22.302Z,2.90
2022-11-16T01:00:49.288Z,4.47
2022-11-16T01:03:16.349Z,3.30
2022-11-16T01:05:43.192Z,3.33
2022-11-16T01:08:10.472Z,3.37
2022-11-16T01:10:40.102Z,3.80
2022-11-16T01:13:07.516Z,5.27
2022-11-16T01:15:34.278Z,3.03
2022-11-16T01:18:01.062Z,3.23
2022-11-16T01:20:29.555Z,4.67
2022-11-16T01:22:56.392Z,4.03
2022-11-16T01:25:23.204Z,3.60
2022-11-16T01:27:50.454Z,3.13
2022-11-16T01:30:17.581Z,4.07
2022-11-16T01:32:44.397Z,3.50
2022-11-16T01:35:16.115Z,4.60
2022-11-16T01:37:42.993Z,3.73
2022-11-16T01:40:10.956Z,4.17
2022-11-16T01:42:37.826Z,4.53
2022-11-16T01:45:07.132Z,7.23
2022-11-16T01:47:33.984Z,4.33
2022-11-16T01:50:11.202Z,4.97
2022-11-16T01:52:43.793Z,5.00
2022-11-16T01:55:11.723Z,4.27
2022-11-16T01:57:41.829Z,6.50
2022-11-16T02:00:11.204Z,4.63
2022-11-16T02:02:37.942Z,4.60
2022-11-16T02:05:06.081Z,4.20
2022-11-16T02:08:00.884Z,3.90
2022-11-16T02:10:39.694Z,4.10
2022-11-16T02:13:11.436Z,4.53
2022-11-16T02:15:44.648Z,4.37
2022-11-16T02:18:11.443Z,4.73
2022-11-16T02:20:45.666Z,4.70
2022-11-16T02:23:46.877Z,4.87
2022-11-16T02:26:19.534Z,4.60
2022-11-16T02:28:46.286Z,6.20
2022-11-16T02:31:23.149Z,4.03
2022-11-16T02:33:52.958Z,5.80
2022-11-16T02:36:23.627Z,3.43
2022-11-16T02:39:00.709Z,4.73
2022-11-16T02:41:31.495Z,5.63
2022-11-16T02:44:04.302Z,4.57
2022-11-16T02:46:39.150Z,5.20
2022-11-16T02:49:16.374Z,3.77
2022-11-16T02:51:44.698Z,5.27
2022-11-16T02:54:16.539Z,6.60
2022-11-16T02:57:13.397Z,5.80
2022-11-16T02:59:44.391Z,5.47
2022-11-16T03:02:24.547Z,4.83
2022-11-16T03:05:21.498Z,4.93
2022-11-16T03:08:18.610Z,4.90
2022-11-16T03:11:09.549Z,6.17
2022-11-16T03:13:37.986Z,8.47
2022-11-16T03:16:11.502Z,5.37
2022-11-16T03:18:39.502Z,6.77
2022-11-16T03:21:33.267Z,6.03
2022-11-16T03:24:00.404Z,6.30
2022-11-16T03:26:34.002Z,6.00
2022-11-16T03:29:08.463Z,7.47
2022-11-16T03:31:46.127Z,5.90
2022-11-16T03:34:16.736Z,7.33
2022-11-16T03:36:47.260Z,6.70
2022-11-16T03:39:34.048Z,6.53
2022-11-16T03:42:05.528Z,5.97
2022-11-16T03:44:33.188Z,6.87
2022-11-16T03:47:01.078Z,8.40
2022-11-16T03:49:30.818Z,8.83
2022-11-16T03:51:58.300Z,9.40
2022-11-16T03:54:25.717Z,7.50
2022-11-16T03:56:52.515Z,9.13
2022-11-16T03:59:19.312Z,9.77
2022-11-16T04:01:46.107Z,9.70
2022-11-16T04:04:33.541Z,6.93
2022-11-16T04:07:18.883Z,8.30
2022-11-16T04:10:04.138Z,8.00
2022-11-16T04:12:49.781Z,10.57
2022-11-16T04:15:35.237Z,10.13
2022-11-16T04:18:21.011Z,9.50
2022-11-16T04:21:06.656Z,11.17
2022-11-16T04:23:52.130Z,8.60
2022-11-16T04:26:18.942Z,10.07
2022-11-16T04:28:45.753Z,11.57
2022-11-16T04:31:31.214Z,10.53
2022-11-16T04:34:17.030Z,9.57
2022-11-16T04:37:02.727Z,9.20
2022-11-16T04:39:29.486Z,9.50
2022-11-16T04:42:14.396Z,12.63
2022-11-16T04:44:59.616Z,10.53
2022-11-16T04:47:26.384Z,10.53
2022-11-16T04:49:53.124Z,13.50
2022-11-16T04:52:20.080Z,11.67
2022-11-16T04:54:46.846Z,13.37
2022-11-16T04:57:13.807Z,11.50
2022-11-16T04:59:40.747Z,11.10
2022-11-16T05:02:10.477Z,12.00
2022-11-16T05:04:39.398Z,12.07
2022-11-16T05:07:13.426Z,11.27
2022-11-16T05:09:42.991Z,11.97
2022-11-16T05:12:20.574Z,12.20
2022-11-16T05:14:47.636Z,13.00
2022-11-16T05:17:15.282Z,13.53
2022-11-16T05:20:00.899Z,11.97
2022-11-16T05:22:28.064Z,15.07
2022-11-16T05:24:54.810Z,12.63
2022-11-16T05:27:23.408Z,12.83
2022-11-16T05:29:50.987Z,16.17
2022-11-16T05:32:19.318Z,14.20
2022-11-16T05:34:46.958Z,14.23
2022-11-16T05:37:15.690Z,14.43
2022-11-16T05:39:42.918Z,14.37
2022-11-16T05:42:09.898Z,15.73
2022-11-16T05:44:36.957Z,13.43
2022-11-16T05:47:03.907Z,16.03
2022-11-16T05:49:30.952Z,14.50
2022-11-16T05:51:57.840Z,14.57
2022-11-16T05:54:26.270Z,15.33
2022-11-16T05:56:54.450Z,15.20
2022-11-16T05:59:22.679Z,13.83
2022-11-16T06:01:50.288Z,13.33
2022-11-16T06:06:58.445Z,12.97
2022-11-16T06:09:25.361Z,14.70
2022-11-16T06:11:52.202Z,13.03
2022-11-16T06:14:19.021Z,13.90
2022-11-16T06:16:45.879Z,13.27
2022-11-16T06:19:12.788Z,12.67
2022-11-16T06:21:39.595Z,14.53
2022-11-16T06:24:09.241Z,13.33
2022-11-16T06:26:37.020Z,12.70
2022-11-16T06:29:04.227Z,12.97
2022-11-16T06:31:31.108Z,13.67
2022-11-16T06:33:58.025Z,14.07
2022-11-16T06:36:25.024Z,17.33
2022-11-16T06:38:52.029Z,13.30
2022-11-16T06:41:19.288Z,16.27
2022-11-16T06:43:46.180Z,14.50
2022-11-16T06:46:13.019Z,14.20
2022-11-16T06:48:39.820Z,13.37
2022-11-16T06:51:06.694Z,14.57
2022-11-16T06:53:33.587Z,13.70
2022-11-16T06:56:05.778Z,13.97
2022-11-16T06:58:33.094Z,13.43
2022-11-16T07:01:08.904Z,12.43
2022-11-16T07:03:35.931Z,14.17
2022-11-16T07:06:10.599Z,13.20
2022-11-16T07:08:38.169Z,13.77
2022-11-16T07:11:07.016Z,14.70
2022-11-16T07:13:34.594Z,14.30
2022-11-16T07:16:05.065Z,14.23
2022-11-16T07:18:37.522Z,12.97
2022-11-16T07:21:11.980Z,12.77
2022-11-16T07:23:39.470Z,15.63
2022-11-16T07:26:07.331Z,14.80
2022-11-16T07:28:34.663Z,14.50
2022-11-16T07:31:13.062Z,15.73
2022-11-16T07:33:40.670Z,13.07
2022-11-16T07:36:13.509Z,12.77
2022-11-16T07:38:40.479Z,12.40
2022-11-16T07:41:15.589Z,12.67
2022-11-16T07:43:42.500Z,11.83
2022-11-16T07:49:11.389Z,11.63
2022-11-16T07:51:38.676Z,13.20
2022-11-16T07:54:06.734Z,13.57
2022-11-16T07:56:33.821Z,11.97
2022-11-16T07:59:01.594Z,11.07
2022-11-16T08:01:28.481Z,12.47
2022-11-16T08:03:55.356Z,13.17
2022-11-16T08:06:25.640Z,12.43
2022-11-16T08:08:58.032Z,11.67
2022-11-16T08:11:26.406Z,13.10
2022-11-16T08:13:53.729Z,13.13
2022-11-16T08:16:22.844Z,10.00
2022-11-16T08:18:50.302Z,10.90
2022-11-16T08:21:19.158Z,9.97
2022-11-16T08:23:46.563Z,11.70
2022-11-16T08:26:16.359Z,12.50
2022-11-16T08:28:45.368Z,10.33
2022-11-16T08:31:14.943Z,11.67
2022-11-16T08:33:42.170Z,11.17
2022-11-16T08:36:14.279Z,11.50
2022-11-16T08:38:41.334Z,11.53
2022-11-16T08:41:08.656Z,9.57
2022-11-16T08:43:36.032Z,8.47
2022-11-16T08:46:03.412Z,8.67
2022-11-16T08:48:31.108Z,9.23
2022-11-16T08:51:17.569Z,9.50
2022-11-16T08:53:48.392Z,10.43
2022-11-16T08:56:16.648Z,9.87
2022-11-16T08:58:44.725Z,9.67
2022-11-16T09:01:14.629Z,6.87
2022-11-16T09:03:42.671Z,7.50
2022-11-16T09:06:11.366Z,7.30
2022-11-16T09:08:40.511Z,8.67
2022-11-16T09:11:09.462Z,8.00
2022-11-16T09:13:36.566Z,8.77
2022-11-16T09:16:04.274Z,7.63
2022-11-16T09:18:31.604Z,9.27
2022-11-16T09:20:58.766Z,5.97
2022-11-16T09:23:26.021Z,7.40
2022-11-16T09:25:53.729Z,6.83
2022-11-16T09:28:21.986Z,5.37
2022-11-16T09:30:51.013Z,5.40
2022-11-16T09:33:18.658Z,5.73
2022-11-16T09:35:47.393Z,6.20
2022-11-16T09:38:19.742Z,5.63
2022-11-16T09:40:51.290Z,5.57
2022-11-16T09:43:44.132Z,7.10
2022-11-16T09:46:21.825Z,5.77
2022-11-16T09:48:50.215Z,5.20
2022-11-16T09:51:21.136Z,4.50
2022-11-16T09:54:11.695Z,4.63
2022-11-16T09:56:41.768Z,7.23
2022-11-16T09:59:12.217Z,4.70
2022-11-16T10:02:05.808Z,4.77
2022-11-16T10:04:43.882Z,5.17
2022-11-16T10:07:15.441Z,4.50
2022-11-16T10:09:43.653Z,6.90
2022-11-16T10:12:28.256Z,5.03
2022-11-16T10:15:04.726Z,4.93
2022-11-16T10:17:47.661Z,5.80
2022-11-16T10:20:31.028Z,4.37
2022-11-16T10:23:14.847Z,5.93
2022-11-16T10:25:46.945Z,5.53
2022-11-16T10:28:36.434Z,5.73
2022-11-16T10:31:45.796Z,5.50
2022-11-16T10:34:23.136Z,5.17
2022-11-16T10:36:50.046Z,5.67
2022-11-16T10:39:19.364Z,6.03
2022-11-16T10:41:50.940Z,5.27
2022-11-16T10:44:42.437Z,5.27
2022-11-16T10:47:19.798Z,6.80
2022-11-16T10:50:09.580Z,9.77
2022-11-16T10:52:36.573Z,4.87
2022-11-16T10:55:03.607Z,7.10
2022-11-16T10:57:53.809Z,6.93
2022-11-16T11:00:56.241Z,5.93
2022-11-16T11:03:33.214Z,8.83
2022-11-16T11:06:00.400Z,5.70
2022-11-16T11:08:30.705Z,7.40
2022-11-16T11:11:24.672Z,7.33
2022-11-16T11:14:15.582Z,6.33
2022-11-16T11:16:42.928Z,7.53
2022-11-16T11:19:27.718Z,4.30
2022-11-16T11:21:59.434Z,11.10
2022-11-16T11:24:44.566Z,8.33
2022-11-16T11:27:30.361Z,6.33
2022-11-16T11:30:01.417Z,5.10
2022-11-16T11:32:34.586Z,6.27
2022-11-16T11:35:03.799Z,7.97
2022-11-16T11:37:34.725Z,7.23
2022-11-16T11:40:24.006Z,8.93
2022-11-16T11:42:56.876Z,9.43
2022-11-16T11:45:33.050Z,9.10
2022-11-16T11:48:03.130Z,6.10
2022-11-16T11:50:42.568Z,10.10
2022-11-16T11:53:29.119Z,8.20
2022-11-16T11:55:58.520Z,5.23
2022-11-16T11:58:34.089Z,9.20
2022-11-16T12:01:34.325Z,8.17
2022-11-16T12:04:31.526Z,8.20
2022-11-16T12:07:13.357Z,9.47
2022-11-16T12:09:46.171Z,6.77
2022-11-16T12:12:50.687Z,8.03
2022-11-16T12:15:42.371Z,9.20
2022-11-16T12:18:27.978Z,4.00
2022-11-16T12:21:06.094Z,10.60
2022-11-16T12:23:43.433Z,7.30
2022-11-16T12:26:38.042Z,7.80
2022-11-16T12:29:28.182Z,9.53
2022-11-16T12:32:00.861Z,8.13
2022-11-16T12:34:46.476Z,10.73
2022-11-16T12:37:35.369Z,6.00
2022-11-16T12:40:14.269Z,8.60
2022-11-16T12:42:59.997Z,5.67
2022-11-16T12:45:51.190Z,9.60
2022-11-16T12:48:43.885Z,7.37
2022-11-16T12:51:21.340Z,7.77
2022-11-16T12:54:15.702Z,13.20
2022-11-16T12:57:18.066Z,8.13
2022-11-16T12:59:57.038Z,8.03
2022-11-16T13:02:42.616Z,8.17
2022-11-16T13:05:23.451Z,4.00
2022-11-16T13:08:00.789Z,12.83
2022-11-16T13:10:31.904Z,9.50
2022-11-16T13:15:59.621Z,6.23
2022-11-16T13:18:27.765Z,6.73
2022-11-16T13:21:03.323Z,10.47
2022-11-16T13:23:59.537Z,8.57
2022-11-16T13:26:47.588Z,6.83
2022-11-16T13:29:36.236Z,9.80
2022-11-16T13:32:03.062Z,8.30
2022-11-16T13:34:33.908Z,7.70
2022-11-16T13:37:00.805Z,8.20
2022-11-16T13:39:58.682Z,7.90
2022-11-16T13:42:26.968Z,6.57
2022-11-16T13:44:57.848Z,9.80
2022-11-16T13:47:28.773Z,6.37
2022-11-16T13:49:59.639Z,6.23
2022-11-16T13:55:57.182Z,4.97
2022-11-16T13:58:25.690Z,7.43
2022-11-16T14:01:10.844Z,5.30
2022-11-16T14:03:42.125Z,4.53
2022-11-16T14:06:24.356Z,5.83
2022-11-16T14:08:51.341Z,6.47
2022-11-16T14:11:34.697Z,9.77
2022-11-16T14:14:09.557Z,8.13
2022-11-16T14:16:50.060Z,6.37
2022-11-16T14:19:44.880Z,5.73
2022-11-16T14:22:48.489Z,8.87
2022-11-16T14:25:39.049Z,5.83
2022-11-16T14:28:12.206Z,6.43
2022-11-16T14:31:10.105Z,5.90
2022-11-16T14:33:38.292Z,5.10
2022-11-16T14:36:08.409Z,7.93
2022-11-16T14:38:36.819Z,4.53
2022-11-16T14:41:06.952Z,8.83
2022-11-16T14:43:49.800Z,4.73
2022-11-16T14:46:30.318Z,8.73
2022-11-16T14:48:59.409Z,8.17
2022-11-16T14:51:32.245Z,8.37
2022-11-16T14:54:16.607Z,6.17
2022-11-16T14:56:57.788Z,7.13
2022-11-16T14:59:25.460Z,3.47
2022-11-16T15:01:53.421Z,11.90
2022-11-16T15:04:22.652Z,5.97
2022-11-16T15:06:59.198Z,6.57
2022-11-16T15:09:33.751Z,7.53
2022-11-16T15:12:22.498Z,6.50
2022-11-16T15:14:55.186Z,5.53
2022-11-16T15:17:30.080Z,5.27
2022-11-16T15:20:05.033Z,3.77
2022-11-16T15:22:40.600Z,4.53
2022-11-16T15:25:26.767Z,5.90
2022-11-16T15:27:54.970Z,4.90
2022-11-16T15:30:25.176Z,4.73
2022-11-16T15:32:53.733Z,7.40
2022-11-16T15:35:35.137Z,5.57
2022-11-16T15:38:18.680Z,4.70
2022-11-16T15:40:58.757Z,6.30
2022-11-16T15:43:29.648Z,7.07
2022-11-16T15:45:57.361Z,7.37
2022-11-16T15:48:26.614Z,6.97
2022-11-16T15:51:27.733Z,8.83
2022-11-16T15:54:15.825Z,10.20
2022-11-16T15:56:43.128Z,7.90
2022-11-16T15:59:12.730Z,4.60
2022-11-16T16:01:44.587Z,10.07
2022-11-16T16:04:16.863Z,7.60
2022-11-16T16:06:57.600Z,7.13
2022-11-16T16:09:31.125Z,11.33
2022-11-16T16:12:23.759Z,8.17
2022-11-16T16:14:52.391Z,8.33
2022-11-16T16:17:27.691Z,9.07
2022-11-16T16:20:00.646Z,11.80
2022-11-16T16:22:36.631Z,9.40
2022-11-16T16:25:06.490Z,6.80
2022-11-16T16:27:40.093Z,9.97
2022-11-16T16:30:13.510Z,11.13
2022-11-16T16:32:40.675Z,9.33
2022-11-16T16:35:16.824Z,9.00
2022-11-16T16:37:43.851Z,8.73
2022-11-16T16:40:11.619Z,10.03
2022-11-16T16:42:38.830Z,11.03
2022-11-16T16:45:06.471Z,9.20
2022-11-16T16:47:33.650Z,12.80
2022-11-16T16:50:00.603Z,13.07
2022-11-16T16:52:27.851Z,9.07
2022-11-16T16:54:54.759Z,10.77
2022-11-16T16:57:22.073Z,16.63
2022-11-16T16:59:49.281Z,9.70
2022-11-16T17:02:16.944Z,13.03
2022-11-16T17:04:46.412Z,10.20
2022-11-16T17:07:13.304Z,14.20
2022-11-16T17:09:40.384Z,10.90
2022-11-16T17:12:07.538Z,8.20
2022-11-16T17:14:34.632Z,12.50
2022-11-16T17:17:01.512Z,16.43
2022-11-16T17:19:29.244Z,11.77
2022-11-16T17:21:56.373Z,12.57
2022-11-16T17:24:23.298Z,14.00
2022-11-16T17:26:50.589Z,15.17
2022-11-16T17:29:19.779Z,16.63
2022-11-16T17:31:49.926Z,13.43
2022-11-16T17:34:16.724Z,11.10
2022-11-16T17:36:43.848Z,11.30
2022-11-16T17:39:10.735Z,11.87
2022-11-16T17:41:38.001Z,13.13
2022-11-16T17:44:05.527Z,12.17
2022-11-16T17:46:32.595Z,12.83
2022-11-16T17:49:00.801Z,14.40
2022-11-16T17:51:29.999Z,10.23
2022-11-16T17:53:57.094Z,10.30
2022-11-16T17:56:26.218Z,13.83
2022-11-16T17:58:55.054Z,21.20
2022-11-16T18:01:22.844Z,8.57
2022-11-16T18:03:50.124Z,14.50
2022-11-16T18:06:22.897Z,14.23
2022-11-16T18:08:50.842Z,13.00
2022-11-16T18:11:19.206Z,13.93
2022-11-16T18:13:47.590Z,11.43
2022-11-16T18:16:17.532Z,13.13
2022-11-16T18:18:46.702Z,15.40
2022-11-16T18:21:20.313Z,10.53
2022-11-16T18:23:47.824Z,16.17
2022-11-16T18:26:17.625Z,13.30
2022-11-16T18:28:48.805Z,13.97
2022-11-16T18:31:20.921Z,13.67
2022-11-16T18:33:51.394Z,14.63
2022-11-16T18:36:19.678Z,19.07
2022-11-16T18:38:47.104Z,14.93
2022-11-16T18:41:13.876Z,19.30
2022-11-16T18:44:01.998Z,29.87
2022-11-16T18:46:33.529Z,21.83
2022-11-16T18:49:00.690Z,17.80
2022-11-16T18:51:29.464Z,17.57
2022-11-16T18:53:56.946Z,16.83
2022-11-16T18:56:24.488Z,15.03
2022-11-16T18:58:53.395Z,17.40
2022-11-16T19:01:25.867Z,14.83
2022-11-16T19:03:54.456Z,19.37
2022-11-16T19:06:22.302Z,14.50
2022-11-16T19:08:59.207Z,16.47
2022-11-16T19:11:27.946Z,16.03
2022-11-16T19:13:57.686Z,21.73
2022-11-16T19:16:25.147Z,15.17
2022-11-16T19:18:53.763Z,21.50
2022-11-16T19:21:22.087Z,15.83
2022-11-16T19:23:54.040Z,15.83
2022-11-16T19:26:26.852Z,16.60
2022-11-16T19:28:54.483Z,16.30
2022-11-16T19:31:27.131Z,14.37
2022-11-16T19:33:55.698Z,15.27
2022-11-16T19:36:23.807Z,19.80
2022-11-16T19:38:51.015Z,18.00
2022-11-16T19:41:21.590Z,17.87
2022-11-16T19:43:59.967Z,17.70
2022-11-16T19:46:28.612Z,19.43
2022-11-16T19:48:56.032Z,14.23
2022-11-16T19:51:31.523Z,18.97
2022-11-16T19:54:02.392Z,16.17
2022-11-16T19:56:29.883Z,16.63
2022-11-16T19:58:57.090Z,15.27
2022-11-16T20:01:28.020Z,17.47
2022-11-16T20:03:57.220Z,14.13
2022-11-16T20:06:26.602Z,16.17
2022-11-16T20:09:00.432Z,15.93
2022-11-16T20:11:29.633Z,18.00
2022-11-16T20:13:58.478Z,14.73
2022-11-16T20:16:27.746Z,20.70
2022-11-16T20:18:55.502Z,20.23
2022-11-16T20:21:33.142Z,17.17
2022-11-16T20:24:06.116Z,18.60
2022-11-16T20:26:34.787Z,15.67
2022-11-16T20:29:01.956Z,21.17
2022-11-16T20:31:30.792Z,19.07
2022-11-16T20:33:59.864Z,17.50
2022-11-16T20:36:29.327Z,19.43
2022-11-16T20:38:56.982Z,19.23
2022-11-16T20:41:25.790Z,22.57
2022-11-16T20:43:58.356Z,23.50
2022-11-16T20:46:30.381Z,23.40
2022-11-16T20:48:59.425Z,21.60
2022-11-16T20:51:27.096Z,20.37
2022-11-16T20:53:54.062Z,27.23
2022-11-16T20:56:21.287Z,19.00
2022-11-16T20:58:49.140Z,21.37
2022-11-16T21:01:18.929Z,19.90
2022-11-16T21:03:46.232Z,22.47
2022-11-16T21:06:14.397Z,22.80
2022-11-16T21:08:42.235Z,21.63
2022-11-16T21:11:54.982Z,19.47
2022-11-16T21:14:23.234Z,19.97
2022-11-16T21:16:50.162Z,23.27
2022-11-16T21:19:17.211Z,19.83
2022-11-16T21:21:44.498Z,18.13
2022-11-16T21:24:11.553Z,19.97
2022-11-16T21:26:38.706Z,19.60
2022-11-16T21:29:05.882Z,19.30
2022-11-16T21:31:36.205Z,20.23
2022-11-16T21:34:03.747Z,18.77
2022-11-16T21:36:32.689Z,18.43
2022-11-16T21:39:00.530Z,19.33
2022-11-16T21:41:27.690Z,18.43
2022-11-16T21:43:54.741Z,18.20
2022-11-16T21:46:24.788Z,15.20
2022-11-16T21:48:53.898Z,17.33
2022-11-16T21:51:22.783Z,15.07
2022-11-16T21:53:49.595Z,16.77
2022-11-16T21:56:18.762Z,15.60
2022-11-16T21:58:46.362Z,14.87
2022-11-16T22:01:16.013Z,13.40
2022-11-16T22:03:44.618Z,15.53
2022-11-16T22:06:34.393Z,15.37
2022-11-16T22:09:01.705Z,13.23
2022-11-16T22:11:29.414Z,13.60
2022-11-16T22:13:56.369Z,14.57
2022-11-16T22:16:23.610Z,13.00
2022-11-16T22:18:51.013Z,14.67
2022-11-16T22:21:18.162Z,13.83
2022-11-16T22:23:45.039Z,12.47
2022-11-16T22:26:13.468Z,12.10
2022-11-16T22:28:40.674Z,13.43
2022-11-16T22:31:10.584Z,12.07
2022-11-16T22:33:38.460Z,13.27
2022-11-16T22:36:08.381Z,14.67
2022-11-16T22:38:35.339Z,12.53
2022-11-16T22:41:02.341Z,11.90
2022-11-16T22:43:31.143Z,13.20
2022-11-16T22:45:59.516Z,15.17
2022-11-16T22:48:34.440Z,12.10
2022-11-16T22:51:12.253Z,14.20
2022-11-16T22:53:39.305Z,14.80
2022-11-16T22:56:08.122Z,11.70
2022-11-16T22:58:36.383Z,11.57
2022-11-16T23:01:04.000Z,13.23
2022-11-16T23:03:31.315Z,11.43
2022-11-16T23:05:58.504Z,10.10
2022-11-16T23:08:26.214Z,15.07
2022-11-16T23:11:38.863Z,12.90
2022-11-16T23:14:25.910Z,11.50
2022-11-16T23:16:52.840Z,12.57
2022-11-16T23:19:39.747Z,13.93
2022-11-16T23:22:28.468Z,13.83
2022-11-16T23:25:14.036Z,14.73
2022-11-16T23:27:44.652Z,11.63
2022-11-16T23:30:13.190Z,13.27
2022-11-16T23:32:41.514Z,14.50
2022-11-16T23:35:09.644Z,13.47
2022-11-16T23:37:50.659Z,15.17
2022-11-16T23:40:17.942Z,12.80
2022-11-16T23:43:03.365Z,17.23
2022-11-16T23:45:30.251Z,15.17
2022-11-16T23:47:57.045Z,16.37
2022-11-16T23:50:23.934Z,14.67
2022-11-16T23:52:50.852Z,14.37
2022-11-16T23:55:17.684Z,16.70
2022-11-16T23:57:44.474Z,19.47
